Aviation Digital Data Service (ADDS)

Output produced by METARs form (2131 UTC 16 February 2019)
found at http://www.aviationweather.gov/metar/data/
 
Forecast for: ZSNB (NINGBO/LISHE , CN)
Text: TAF ZSNB 161413Z 1618/1718 36003MPS 3000 -RA BR SCT005 BKN016 TX06/1706Z TN03/1621Z
Forecast period: 1800 UTC 16 February 2019 to 1800 UTC 17 February 2019
Forecast type: FROM: standard forecast or significant change
Winds: from the N (360 degrees) at 7 MPH (6 knots; 3.1 m/s)
Visibility: 1.86 miles (2.99 km)
Ceiling: 1600 feet AGL
Clouds: scattered clouds at 500 feet AGL
broken clouds at 1600 feet AGL
Weather: -RA BR  (light rain, mist)